Time;durP1;ratioP1;P1;durP2;ratioP2;P2;SDS_P1;SDS_P2;PMS_P1;PMS_P2;Temp;Humidity;BMP_temperature;BMP_pressure;BME280_temperature;BME280_humidity;BME280_pressure;Samples;Min_cycle;Max_cycle;Signal;HPM_P1;HPM_P2
2023/02/26 00:01:11;;;;;;;;;;;;;;;10.84;69.42;98651.50;5090253;28;19960;-37
2023/02/26 00:03:36;;;;;;;;;;;;;;;10.93;69.22;98660.75;5091896;28;19985;-37
2023/02/26 00:06:01;;;;;;;;;;;;;;;10.90;69.21;98647.91;5091674;28;20391;-37
2023/02/26 00:08:27;;;;;;;;;;;;;;;10.92;68.71;98648.50;5092043;28;19958;-37
2023/02/26 00:10:53;;;;;;;;;;;;;;;11.09;68.07;98653.91;5091819;28;19918;-37
2023/02/26 00:13:19;;;;;;;;;;;;;;;11.19;68.08;98663.97;5091665;28;20123;-37
2023/02/26 00:15:44;;;;;;;;;;;;;;;11.09;67.65;98659.25;5091397;28;19912;-37
2023/02/26 00:18:12;;;;;;;;;;;;;;;11.10;68.08;98656.34;5091740;28;20391;-37
2023/02/26 00:20:38;;;;;;;;;;;;;;;10.99;68.13;98654.50;5091122;28;19963;-37
2023/02/26 00:23:03;;;;;;;;;;;;;;;10.91;68.77;98666.31;5091150;28;19958;-37
2023/02/26 00:25:29;;;;;;;;;;;;;;;10.81;69.63;98660.75;5091190;28;19916;-37
2023/02/26 00:27:54;;;;;;;;;;;;;;;10.71;69.23;98656.00;5091049;28;20388;-37
2023/02/26 00:30:20;;;;;;;;;;;;;;;10.85;68.76;98669.06;5090823;28;19913;-35
2023/02/26 00:32:45;;;;;;;;;;;;;;;10.83;69.31;98653.34;5091092;28;19920;-38
2023/02/26 00:35:12;;;;;;;;;;;;;;;10.93;68.22;98653.59;5091195;28;19931;-36
2023/02/26 00:37:55;;;;;;;;;;;;;;;11.17;67.52;98663.41;5091006;28;19912;-36
2023/02/26 00:40:26;;;;;;;;;;;;;;;11.06;68.01;98649.03;5090976;28;19919;-36
2023/02/26 00:42:52;;;;;;;;;;;;;;;11.00;67.33;98634.81;5091023;28;19947;-36
2023/02/26 00:45:17;;;;;;;;;;;;;;;11.31;67.08;98651.47;5090028;28;20016;-37
2023/02/26 00:48:01;;;;;;;;;;;;;;;11.11;67.46;98631.34;5091220;28;19912;-36
2023/02/26 00:50:27;;;;;;;;;;;;;;;11.33;66.59;98644.84;5091314;28;19915;-35
2023/02/26 00:52:55;;;;;;;;;;;;;;;11.50;65.52;98628.16;5090999;28;20440;-36
2023/02/26 00:55:20;;;;;;;;;;;;;;;11.55;66.08;98642.34;5090673;28;20332;-36
2023/02/26 00:57:46;;;;;;;;;;;;;;;11.47;66.19;98626.75;5090890;28;19919;-35
2023/02/26 01:00:12;;;;;;;;;;;;;;;11.59;65.77;98644.53;5090852;28;20402;-35
2023/02/26 01:02:38;;;;;;;;;;;;;;;11.54;65.47;98624.75;5091121;28;19918;-36
2023/02/26 01:05:04;;;;;;;;;;;;;;;11.63;65.00;98651.84;5090879;28;19912;-37
2023/02/26 01:07:33;;;;;;;;;;;;;;;11.79;64.94;98642.28;5090751;28;19916;-37
2023/02/26 01:09:59;;;;;;;;;;;;;;;11.97;63.75;98622.63;5090881;28;20008;-36
2023/02/26 01:12:24;;;;;;;;;;;;;;;11.78;64.62;98629.97;5090696;28;19995;-37
2023/02/26 01:14:51;;;;;;;;;;;;;;;12.06;64.01;98637.19;5090785;28;19912;-36
2023/02/26 01:17:24;;;;;;;;;;;;;;;12.09;64.02;98626.06;5090534;28;19995;-37
2023/02/26 01:20:13;;;;;;;;;;;;;;;12.01;63.88;98639.75;5090441;28;20466;-37
2023/02/26 01:22:45;;;;;;;;;;;;;;;12.15;63.30;98640.28;5090666;28;19931;-37
2023/02/26 01:25:13;;;;;;;;;;;;;;;12.01;63.64;98637.09;5090434;28;20376;-36
2023/02/26 01:27:39;;;;;;;;;;;;;;;12.27;62.74;98640.22;5089292;28;20233;-37
2023/02/26 01:30:05;;;;;;;;;;;;;;;11.92;63.68;98638.56;5090981;28;19912;-37
2023/02/26 01:32:45;;;;;;;;;;;;;;;12.00;63.91;98642.69;5090927;28;20383;-37
2023/02/26 01:35:16;;;;;;;;;;;;;;;11.70;64.47;98652.50;5090465;28;19942;-37
2023/02/26 01:37:50;;;;;;;;;;;;;;;11.82;64.06;98652.47;5090707;28;19912;-37
2023/02/26 01:40:16;;;;;;;;;;;;;;;11.93;64.04;98650.81;5090295;28;19916;-36
2023/02/26 01:42:44;;;;;;;;;;;;;;;11.93;63.51;98650.81;5090395;28;20303;-37
2023/02/26 01:45:16;;;;;;;;;;;;;;;12.08;63.39;98644.97;5090393;28;19916;-37
2023/02/26 01:47:44;;;;;;;;;;;;;;;12.18;62.57;98649.66;5090579;28;19923;-37
2023/02/26 01:50:14;;;;;;;;;;;;;;;12.10;63.48;98629.53;5090637;28;19916;-36
2023/02/26 01:52:49;;;;;;;;;;;;;;;12.16;63.53;98641.88;5090556;28;19956;-37
2023/02/26 01:55:22;;;;;;;;;;;;;;;11.95;64.05;98630.06;5090753;28;19918;-37
2023/02/26 01:57:48;;;;;;;;;;;;;;;12.03;63.95;98645.69;5090500;28;20003;-37
2023/02/26 02:00:14;;;;;;;;;;;;;;;11.76;64.43;98637.41;5090395;28;19918;-37
2023/02/26 02:02:39;;;;;;;;;;;;;;;11.77;64.36;98639.03;5089765;28;20003;-36
2023/02/26 02:05:10;;;;;;;;;;;;;;;11.84;64.53;98628.22;5090404;28;20445;-36
2023/02/26 02:07:35;;;;;;;;;;;;;;;11.83;64.31;98630.09;5091352;28;19984;-36
2023/02/26 02:10:01;;;;;;;;;;;;;;;11.71;64.12;98634.69;5094274;28;19920;-36
2023/02/26 02:12:45;;;;;;;;;;;;;;;11.58;65.19;98646.41;5094301;28;20034;-36
2023/02/26 02:15:15;;;;;;;;;;;;;;;11.44;66.01;98637.06;5094184;28;19919;-37
2023/02/26 02:17:43;;;;;;;;;;;;;;;11.65;65.08;98641.75;5093675;28;19939;-36
2023/02/26 02:20:25;;;;;;;;;;;;;;;11.67;64.55;98641.50;5093845;28;19924;-36
2023/02/26 02:23:10;;;;;;;;;;;;;;;11.65;64.31;98635.59;5093989;28;20288;-35
2023/02/26 02:25:48;;;;;;;;;;;;;;;11.78;63.04;98634.50;5094005;28;19912;-35
2023/02/26 02:28:22;;;;;;;;;;;;;;;12.26;61.41;98627.91;5094182;28;19999;-36
2023/02/26 02:30:56;;;;;;;;;;;;;;;12.06;61.04;98631.06;5093771;28;19912;-37
2023/02/26 02:33:27;;;;;;;;;;;;;;;12.20;61.35;98626.22;5093856;28;20011;-37
2023/02/26 02:35:59;;;;;;;;;;;;;;;12.26;60.99;98623.41;5093742;28;19912;-37
2023/02/26 02:38:38;;;;;;;;;;;;;;;12.24;60.96;98628.19;5093662;28;19912;-37
2023/02/26 02:41:10;;;;;;;;;;;;;;;12.38;59.10;98630.53;5093299;28;19924;-37
2023/02/26 02:43:37;;;;;;;;;;;;;;;12.30;57.42;98626.41;5093778;28;19973;-36
2023/02/26 02:46:04;;;;;;;;;;;;;;;12.73;55.92;98635.59;5093779;28;19912;-37
2023/02/26 02:48:33;;;;;;;;;;;;;;;13.12;53.35;98635.63;5094029;28;19923;-36
2023/02/26 02:51:08;;;;;;;;;;;;;;;13.32;52.89;98627.09;5093915;28;19912;-36
2023/02/26 02:53:36;;;;;;;;;;;;;;;13.73;50.65;98629.41;5093808;28;20374;-36
2023/02/26 02:56:05;;;;;;;;;;;;;;;13.92;50.35;98630.72;5093846;28;19977;-36
2023/02/26 02:58:33;;;;;;;;;;;;;;;13.82;49.83;98634.09;5093751;28;19920;-36
2023/02/26 03:01:01;;;;;;;;;;;;;;;14.06;48.42;98641.78;5093589;28;19920;-36
2023/02/26 03:03:33;;;;;;;;;;;;;;;14.02;48.76;98643.38;5093572;28;20304;-36
2023/02/26 03:05:58;;;;;;;;;;;;;;;14.28;47.05;98644.41;5093403;28;19916;-36
2023/02/26 03:08:26;;;;;;;;;;;;;;;14.47;47.00;98632.25;5093471;28;20068;-38
2023/02/26 03:10:52;;;;;;;;;;;;;;;14.74;46.42;98634.09;5093422;28;20360;-36
2023/02/26 03:13:19;;;;;;;;;;;;;;;14.60;46.16;98632.91;5093550;28;19923;-37
2023/02/26 03:15:45;;;;;;;;;;;;;;;14.50;47.67;98630.13;5093601;28;19912;-36
2023/02/26 03:18:30;;;;;;;;;;;;;;;14.39;48.77;98646.13;5093375;28;19923;-36
2023/02/26 03:21:03;;;;;;;;;;;;;;;13.65;51.47;98630.66;5093087;28;19924;-36
2023/02/26 03:23:39;;;;;;;;;;;;;;;13.92;51.22;98632.56;5093462;28;19938;-37
2023/02/26 03:26:22;;;;;;;;;;;;;;;13.74;51.83;98618.47;5093105;28;19913;-36
2023/02/26 03:28:55;;;;;;;;;;;;;;;13.46;53.30;98625.66;5093443;28;19919;-36
2023/02/26 03:31:43;;;;;;;;;;;;;;;13.42;53.84;98639.75;5093798;28;20028;-36
2023/02/26 03:34:18;;;;;;;;;;;;;;;12.52;56.88;98610.47;5087073;28;19951;-36
2023/02/26 03:36:44;;;;;;;;;;;;;;;12.38;57.03;98622.53;5093162;28;19919;-36
2023/02/26 03:39:09;;;;;;;;;;;;;;;12.06;58.66;98629.19;5093111;28;19916;-36
2023/02/26 03:41:40;;;;;;;;;;;;;;;11.95;59.07;98618.59;5093056;28;19917;-38
2023/02/26 03:44:13;;;;;;;;;;;;;;;11.99;59.84;98614.41;5092958;28;20394;-36
2023/02/26 03:46:42;;;;;;;;;;;;;;;12.00;59.25;98614.16;5092925;28;20266;-36
2023/02/26 03:49:13;;;;;;;;;;;;;;;12.07;59.25;98612.16;5093028;28;20438;-36
2023/02/26 03:51:40;;;;;;;;;;;;;;;12.37;58.48;98608.34;5092867;28;19918;-36
2023/02/26 03:54:09;;;;;;;;;;;;;;;12.21;58.72;98611.84;5092336;28;19920;-36
2023/02/26 03:56:39;;;;;;;;;;;;;;;12.67;57.69;98620.56;5092624;28;19951;-37
2023/02/26 03:59:04;;;;;;;;;;;;;;;12.52;58.50;98613.13;5092690;28;19916;-36
2023/02/26 04:01:44;;;;;;;;;;;;;;;12.48;58.50;98618.16;5092482;28;19967;-37
2023/02/26 04:04:28;;;;;;;;;;;;;;;12.14;59.63;98593.31;5092496;28;19920;-37
2023/02/26 04:06:54;;;;;;;;;;;;;;;12.15;59.71;98608.28;5092404;28;19965;-37
2023/02/26 04:09:20;;;;;;;;;;;;;;;12.43;59.48;98628.75;5092440;28;19916;-37
2023/02/26 04:11:46;;;;;;;;;;;;;;;12.56;58.27;98616.94;5092308;28;20302;-37
2023/02/26 04:14:11;;;;;;;;;;;;;;;12.69;58.50;98608.59;5092530;28;19912;-36
2023/02/26 04:16:37;;;;;;;;;;;;;;;12.18;60.18;98594.44;5092107;28;19912;-36
2023/02/26 04:19:02;;;;;;;;;;;;;;;12.30;59.78;98599.72;5092436;28;19912;-36
2023/02/26 04:21:27;;;;;;;;;;;;;;;12.47;59.50;98600.53;5092024;28;20256;-36
2023/02/26 04:23:52;;;;;;;;;;;;;;;12.43;59.50;98588.75;5092435;28;19915;-36
2023/02/26 04:26:18;;;;;;;;;;;;;;;12.29;60.53;98592.78;5092216;28;19991;-36
2023/02/26 04:28:43;;;;;;;;;;;;;;;12.54;59.92;98607.56;5092221;28;19919;-36
2023/02/26 04:31:11;;;;;;;;;;;;;;;12.48;60.11;98604.00;5091525;28;20576;-36
2023/02/26 04:33:37;;;;;;;;;;;;;;;12.38;60.71;98585.97;5092049;28;19935;-36
2023/02/26 04:36:03;;;;;;;;;;;;;;;12.54;60.35;98580.88;5091878;28;19918;-36
2023/02/26 04:38:29;;;;;;;;;;;;;;;12.27;61.30;98573.53;5091883;28;19959;-36
2023/02/26 04:40:54;;;;;;;;;;;;;;;12.33;61.46;98578.69;5092085;28;19959;-36
2023/02/26 04:43:19;;;;;;;;;;;;;;;12.36;61.70;98568.63;5091902;28;19916;-42
2023/02/26 04:45:45;;;;;;;;;;;;;;;12.47;61.03;98570.34;5091647;28;19919;-42
2023/02/26 04:48:11;;;;;;;;;;;;;;;12.69;60.54;98584.56;5091761;28;19912;-42
2023/02/26 04:50:36;;;;;;;;;;;;;;;13.02;59.93;98587.41;5091761;28;19988;-43
2023/02/26 04:53:01;;;;;;;;;;;;;;;12.87;59.87;98571.97;5091521;28;20309;-42
2023/02/26 04:55:27;;;;;;;;;;;;;;;12.79;61.53;98567.88;5091335;28;20003;-42
2023/02/26 04:57:53;;;;;;;;;;;;;;;12.84;60.96;98572.50;5091482;28;19916;-42
2023/02/26 05:00:19;;;;;;;;;;;;;;;13.28;59.67;98581.31;5091460;28;19923;-42
2023/02/26 05:02:44;;;;;;;;;;;;;;;13.56;59.09;98590.22;5091691;28;19919;-41
2023/02/26 05:05:09;;;;;;;;;;;;;;;13.42;59.27;98573.78;5091672;28;19916;-41
2023/02/26 05:07:34;;;;;;;;;;;;;;;13.28;59.78;98562.63;5091406;28;19969;-42
2023/02/26 05:10:00;;;;;;;;;;;;;;;13.13;60.31;98566.97;5091406;28;19998;-42
2023/02/26 05:12:25;;;;;;;;;;;;;;;13.44;59.43;98576.19;5091180;28;19912;-43
2023/02/26 05:14:50;;;;;;;;;;;;;;;13.73;58.46;98576.78;5091114;28;19966;-43
2023/02/26 05:17:16;;;;;;;;;;;;;;;13.49;58.77;98573.56;5091239;28;19916;-42
2023/02/26 05:19:41;;;;;;;;;;;;;;;13.80;57.91;98581.91;5091396;28;19916;-43
2023/02/26 05:22:06;;;;;;;;;;;;;;;14.03;56.46;98594.16;5090409;28;19932;-43
2023/02/26 05:24:31;;;;;;;;;;;;;;;13.84;57.23;98585.69;5090323;28;19936;-43
2023/02/26 05:26:57;;;;;;;;;;;;;;;13.97;57.22;98585.25;5091255;28;19995;-42
2023/02/26 05:29:22;;;;;;;;;;;;;;;13.65;57.99;98575.34;5091176;28;20330;-42
2023/02/26 05:31:47;;;;;;;;;;;;;;;13.26;59.40;98577.28;5091501;28;20007;-43
2023/02/26 05:34:13;;;;;;;;;;;;;;;13.34;59.47;98592.09;5091136;28;19923;-42
2023/02/26 05:36:38;;;;;;;;;;;;;;;13.59;58.88;98583.56;5091235;28;20369;-42
2023/02/26 05:39:03;;;;;;;;;;;;;;;13.58;58.69;98587.31;5091232;28;19917;-37
2023/02/26 05:41:28;;;;;;;;;;;;;;;13.23;59.67;98596.47;5091448;28;20419;-36
2023/02/26 05:43:54;;;;;;;;;;;;;;;13.39;59.25;98609.00;5094589;28;19919;-37
2023/02/26 05:46:19;;;;;;;;;;;;;;;13.20;59.86;98619.16;5095011;28;19916;-37
2023/02/26 05:48:44;;;;;;;;;;;;;;;13.05;60.06;98600.28;5095195;28;20057;-35
2023/02/26 05:51:10;;;;;;;;;;;;;;;13.08;60.52;98602.47;5095170;28;20010;-36
2023/02/26 05:53:35;;;;;;;;;;;;;;;13.39;59.22;98613.56;5095423;28;19914;-36
2023/02/26 05:56:00;;;;;;;;;;;;;;;13.15;60.09;98611.06;5095086;28;20013;-37
2023/02/26 05:58:25;;;;;;;;;;;;;;;13.04;60.65;98620.00;5095217;28;19919;-37
2023/02/26 06:00:51;;;;;;;;;;;;;;;13.28;60.40;98632.09;5095319;28;20011;-36
2023/02/26 06:03:16;;;;;;;;;;;;;;;13.42;59.77;98629.06;5105595;28;20045;-37
2023/02/26 06:05:41;;;;;;;;;;;;;;;13.61;59.14;98641.06;5112806;28;19918;-36
2023/02/26 06:08:07;;;;;;;;;;;;;;;13.36;59.67;98633.53;5115240;28;19912;-37
2023/02/26 06:10:32;;;;;;;;;;;;;;;13.74;59.18;98645.22;5114720;28;20367;-37
2023/02/26 06:12:57;;;;;;;;;;;;;;;13.54;59.20;98647.66;5114551;28;19919;-37
2023/02/26 06:15:23;;;;;;;;;;;;;;;13.82;58.43;98655.47;5114855;28;19919;-36
2023/02/26 06:17:48;;;;;;;;;;;;;;;13.99;58.13;98663.41;5113979;28;19976;-36
2023/02/26 06:20:13;;;;;;;;;;;;;;;13.87;58.79;98657.38;5093661;28;20408;-40
2023/02/26 06:22:39;;;;;;;;;;;;;;;13.94;58.48;98649.97;5094091;28;19916;-37
2023/02/26 06:25:04;;;;;;;;;;;;;;;13.57;59.54;98647.94;5093979;28;19919;-37
2023/02/26 06:27:30;;;;;;;;;;;;;;;13.77;58.43;98646.59;5093623;28;19916;-37
2023/02/26 06:29:55;;;;;;;;;;;;;;;14.33;57.45;98649.78;5090878;28;19923;-37
2023/02/26 06:32:20;;;;;;;;;;;;;;;14.14;57.77;98661.94;5093546;28;19986;-37
2023/02/26 06:34:45;;;;;;;;;;;;;;;14.21;56.46;98668.69;5092655;28;20320;-36
2023/02/26 06:37:11;;;;;;;;;;;;;;;13.95;56.57;98646.22;5093774;28;19919;-36
2023/02/26 06:39:36;;;;;;;;;;;;;;;13.93;56.07;98652.91;5099274;28;19931;-43
2023/02/26 06:42:01;;;;;;;;;;;;;;;14.48;53.48;98652.59;5104348;28;20322;-36
2023/02/26 06:44:27;;;;;;;;;;;;;;;14.70;52.62;98643.72;5093052;28;19965;-37
2023/02/26 06:46:52;;;;;;;;;;;;;;;15.21;49.65;98629.78;5094308;28;19919;-37
2023/02/26 06:49:17;;;;;;;;;;;;;;;15.03;51.07;98644.44;5093484;28;19920;-35
2023/02/26 06:51:42;;;;;;;;;;;;;;;15.27;50.21;98638.66;5093403;28;19912;-37
2023/02/26 06:54:08;;;;;;;;;;;;;;;15.24;50.98;98630.09;5092809;28;19931;-36
2023/02/26 06:56:33;;;;;;;;;;;;;;;15.42;50.21;98646.78;5093257;28;19912;-37
2023/02/26 06:58:58;;;;;;;;;;;;;;;16.08;49.65;98642.72;5093274;28;19916;-37
2023/02/26 07:01:24;;;;;;;;;;;;;;;16.10;48.15;98640.56;5092923;28;19920;-37
2023/02/26 07:03:49;;;;;;;;;;;;;;;15.64;50.76;98652.75;5093138;28;20117;-36
2023/02/26 07:06:15;;;;;;;;;;;;;;;15.29;50.60;98641.88;5092848;28;19912;-37
2023/02/26 07:08:40;;;;;;;;;;;;;;;15.37;50.26;98650.25;5093021;28;19975;-37
2023/02/26 07:11:07;;;;;;;;;;;;;;;15.80;49.30;98655.53;5092835;28;20093;-44
2023/02/26 07:13:33;;;;;;;;;;;;;;;16.60;45.60;98652.41;5092813;28;19969;-37
2023/02/26 07:15:58;;;;;;;;;;;;;;;16.76;45.84;98661.25;5092594;28;19912;-37
2023/02/26 07:18:23;;;;;;;;;;;;;;;17.14;45.19;98653.72;5092857;28;19959;-37
2023/02/26 07:20:49;;;;;;;;;;;;;;;17.34;44.38;98655.53;5092452;28;19932;-37
2023/02/26 07:23:14;;;;;;;;;;;;;;;17.82;42.08;98663.13;5093221;28;19912;-37
2023/02/26 07:25:40;;;;;;;;;;;;;;;18.16;41.53;98660.50;5092999;28;20324;-36
2023/02/26 07:28:05;;;;;;;;;;;;;;;18.24;41.21;98657.25;5092884;28;19912;-36
2023/02/26 07:30:30;;;;;;;;;;;;;;;18.23;37.17;98658.31;5092469;28;20391;-36
2023/02/26 07:32:56;;;;;;;;;;;;;;;18.78;36.48;98652.75;5092468;28;19913;-36
2023/02/26 07:35:22;;;;;;;;;;;;;;;19.41;35.30;98673.44;5092497;28;19912;-36
2023/02/26 07:37:47;;;;;;;;;;;;;;;20.36;35.85;98656.56;5092115;28;19912;-37
2023/02/26 07:40:12;;;;;;;;;;;;;;;20.18;35.28;98655.44;5092119;28;19962;-36
2023/02/26 07:42:38;;;;;;;;;;;;;;;19.61;35.78;98655.38;5091940;28;19916;-37
2023/02/26 07:45:03;;;;;;;;;;;;;;;19.73;36.86;98656.63;5091671;28;19959;-36
2023/02/26 07:47:29;;;;;;;;;;;;;;;20.10;35.48;98665.03;5091733;28;19999;-36
2023/02/26 07:49:55;;;;;;;;;;;;;;;20.57;34.65;98659.72;5091876;28;19939;-36
2023/02/26 07:52:20;;;;;;;;;;;;;;;20.37;33.90;98652.72;5091567;28;20389;-36
2023/02/26 07:54:45;;;;;;;;;;;;;;;20.19;34.25;98638.97;5091891;28;19935;-36
2023/02/26 07:57:11;;;;;;;;;;;;;;;20.04;34.68;98634.59;5091679;28;19995;-37
2023/02/26 07:59:36;;;;;;;;;;;;;;;19.91;34.89;98632.63;5091743;28;19913;-37
2023/02/26 08:02:01;;;;;;;;;;;;;;;19.78;35.27;98644.13;5091460;28;20007;-36
2023/02/26 08:04:26;;;;;;;;;;;;;;;19.89;35.29;98648.31;5091658;28;19973;-36
2023/02/26 08:06:53;;;;;;;;;;;;;;;20.77;34.21;98639.66;5090666;28;19912;-36
2023/02/26 08:09:19;;;;;;;;;;;;;;;20.59;33.74;98614.28;5091593;28;19919;-37
2023/02/26 08:11:44;;;;;;;;;;;;;;;20.50;33.70;98631.19;5091953;28;19912;-36
2023/02/26 08:14:10;;;;;;;;;;;;;;;20.62;34.15;98636.16;5091331;28;20010;-36
2023/02/26 08:16:35;;;;;;;;;;;;;;;20.25;34.24;98635.06;5091238;28;20359;-35
2023/02/26 08:19:01;;;;;;;;;;;;;;;20.00;35.34;98635.47;5091349;28;20002;-36
2023/02/26 08:21:27;;;;;;;;;;;;;;;20.45;34.06;98639.38;5091186;28;19924;-36
2023/02/26 08:23:53;;;;;;;;;;;;;;;20.67;33.15;98641.44;5091176;28;19916;-36
2023/02/26 08:26:18;;;;;;;;;;;;;;;20.36;34.02;98643.84;5091235;28;19945;-35
2023/02/26 08:28:45;;;;;;;;;;;;;;;20.12;35.19;98652.03;5089668;28;19919;-37
2023/02/26 08:31:10;;;;;;;;;;;;;;;20.59;34.98;98647.50;5090653;28;19931;-35
2023/02/26 08:33:35;;;;;;;;;;;;;;;20.74;34.35;98638.38;5090520;28;19995;-36
2023/02/26 08:36:01;;;;;;;;;;;;;;;20.89;34.27;98656.22;5090417;28;20326;-35
2023/02/26 08:38:27;;;;;;;;;;;;;;;20.40;34.82;98635.94;5090844;28;19912;-35
2023/02/26 08:40:52;;;;;;;;;;;;;;;20.27;35.15;98626.69;5090954;28;20551;-36
2023/02/26 08:43:18;;;;;;;;;;;;;;;20.25;35.57;98626.97;5090983;28;19922;-36
2023/02/26 08:45:44;;;;;;;;;;;;;;;20.51;35.11;98634.69;5104102;28;19982;-35
2023/02/26 08:48:09;;;;;;;;;;;;;;;20.68;34.42;98640.38;5110335;28;19912;-36
2023/02/26 08:50:34;;;;;;;;;;;;;;;20.64;34.44;98620.44;5110325;28;19985;-36
2023/02/26 08:53:00;;;;;;;;;;;;;;;20.59;34.00;98619.69;5110968;28;20363;-36
2023/02/26 08:55:25;;;;;;;;;;;;;;;20.42;34.50;98620.25;5110456;28;19912;-37
2023/02/26 08:57:50;;;;;;;;;;;;;;;20.81;32.85;98625.28;5110182;28;19937;-36
2023/02/26 09:00:17;;;;;;;;;;;;;;;20.85;33.78;98628.19;5110354;28;20295;-36
2023/02/26 09:02:42;;;;;;;;;;;;;;;20.89;33.90;98604.84;5110149;28;19916;-36
2023/02/26 09:05:08;;;;;;;;;;;;;;;21.16;33.38;98623.00;5109853;28;19915;-37
2023/02/26 09:07:33;;;;;;;;;;;;;;;21.74;32.03;98615.34;5088951;28;19961;-37
2023/02/26 09:09:59;;;;;;;;;;;;;;;21.47;32.75;98619.69;5090875;28;19951;-36
2023/02/26 09:12:24;;;;;;;;;;;;;;;21.53;32.60;98631.22;5090693;28;19919;-37
2023/02/26 09:14:49;;;;;;;;;;;;;;;21.27;32.90;98631.72;5091183;28;19912;-35
2023/02/26 09:17:14;;;;;;;;;;;;;;;21.42;32.76;98634.13;5090253;28;19912;-36
2023/02/26 09:19:40;;;;;;;;;;;;;;;21.44;32.34;98637.34;5091043;28;19969;-36
2023/02/26 09:22:05;;;;;;;;;;;;;;;21.48;31.96;98634.84;5090566;28;19924;-36
2023/02/26 09:24:30;;;;;;;;;;;;;;;21.65;32.18;98639.63;5091204;28;19916;-36
2023/02/26 09:26:56;;;;;;;;;;;;;;;21.64;32.55;98644.22;5091359;28;19916;-35
2023/02/26 09:29:21;;;;;;;;;;;;;;;21.84;31.99;98632.16;5090643;28;20011;-37
2023/02/26 09:31:46;;;;;;;;;;;;;;;21.95;32.45;98629.22;5090425;28;19912;-36
2023/02/26 09:34:12;;;;;;;;;;;;;;;22.20;30.83;98646.78;5090367;28;19931;-37
2023/02/26 09:36:38;;;;;;;;;;;;;;;21.55;31.32;98629.84;5090197;28;19912;-36
2023/02/26 09:39:03;;;;;;;;;;;;;;;21.78;31.27;98622.56;5089788;28;19912;-36
2023/02/26 09:41:34;;;;;;;;;;;;;;;22.19;30.98;98623.53;5090812;28;20296;-38
2023/02/26 09:44:13;;;;;;;;;;;;;;;22.08;30.30;98619.47;5090513;28;20019;-36
2023/02/26 09:46:38;;;;;;;;;;;;;;;22.53;29.74;98609.44;5070078;28;19923;-37
2023/02/26 09:49:19;;;;;;;;;;;;;;;22.48;29.86;98606.06;5070211;28;19966;-36
2023/02/26 09:51:47;;;;;;;;;;;;;;;22.54;29.76;98615.66;5070539;28;19955;-36
2023/02/26 09:54:18;;;;;;;;;;;;;;;22.52;29.08;98604.31;5070508;28;19981;-36
2023/02/26 09:56:43;;;;;;;;;;;;;;;23.31;28.63;98611.72;5070163;28;19913;-37
2023/02/26 09:59:09;;;;;;;;;;;;;;;23.62;28.62;98602.69;5070544;28;19912;-36
2023/02/26 10:01:42;;;;;;;;;;;;;;;23.59;28.50;98606.84;5070193;28;19920;-36
2023/02/26 10:04:17;;;;;;;;;;;;;;;22.94;29.13;98597.53;5070114;28;19912;-35
2023/02/26 10:07:09;;;;;;;;;;;;;;;22.88;28.82;98596.06;5070431;28;19920;-36
2023/02/26 10:09:47;;;;;;;;;;;;;;;23.68;28.00;98587.81;5087607;28;19976;-37
2023/02/26 10:12:15;;;;;;;;;;;;;;;23.88;29.32;98600.03;5087706;28;19947;-36
2023/02/26 10:14:50;;;;;;;;;;;;;;;23.86;28.05;98601.47;5089931;28;19920;-37
2023/02/26 10:17:19;;;;;;;;;;;;;;;23.13;27.95;98621.75;5089828;28;20053;-36
2023/02/26 10:19:46;;;;;;;;;;;;;;;22.57;27.45;98596.88;5090014;28;20392;-36
2023/02/26 10:22:14;;;;;;;;;;;;;;;22.23;28.93;98611.75;5089614;28;19932;-37
2023/02/26 10:24:42;;;;;;;;;;;;;;;22.65;28.22;98595.31;5089655;28;19953;-36
2023/02/26 10:27:13;;;;;;;;;;;;;;;23.41;27.07;98602.47;5089743;28;19939;-36
2023/02/26 10:29:55;;;;;;;;;;;;;;;22.70;27.38;98581.63;5092244;28;19990;-36
2023/02/26 10:32:34;;;;;;;;;;;;;;;22.22;27.28;98599.34;5092356;28;20420;-36
2023/02/26 10:35:02;;;;;;;;;;;;;;;22.38;26.99;98599.78;5093563;28;19920;-36
2023/02/26 10:37:46;;;;;;;;;;;;;;;22.37;27.34;98600.91;5093202;28;19912;-36
2023/02/26 10:40:23;;;;;;;;;;;;;;;22.69;27.65;98614.47;5092647;28;19916;-36
2023/02/26 10:43:07;;;;;;;;;;;;;;;22.25;27.73;98573.56;5092757;28;20069;-36
2023/02/26 10:45:40;;;;;;;;;;;;;;;22.28;27.45;98591.13;5092207;28;19920;-37
2023/02/26 10:48:17;;;;;;;;;;;;;;;22.27;27.57;98584.09;5092880;28;19912;-36
2023/02/26 10:50:48;;;;;;;;;;;;;;;22.32;28.49;98594.81;5092275;28;19923;-37
2023/02/26 10:53:13;;;;;;;;;;;;;;;22.90;27.97;98564.00;5089067;28;19912;-36
2023/02/26 10:55:41;;;;;;;;;;;;;;;22.97;27.01;98571.69;5091865;28;19922;-35
2023/02/26 10:58:17;;;;;;;;;;;;;;;23.15;26.67;98557.09;5092628;28;19912;-37
2023/02/26 11:00:46;;;;;;;;;;;;;;;22.86;28.47;98583.94;5092482;28;19912;-37
2023/02/26 11:03:20;;;;;;;;;;;;;;;22.93;28.66;98571.50;5092708;28;19973;-36
2023/02/26 11:05:47;;;;;;;;;;;;;;;23.34;28.21;98558.72;5092269;28;19919;-36
2023/02/26 11:08:26;;;;;;;;;;;;;;;23.54;27.72;98555.41;5092167;28;19912;-36
2023/02/26 11:10:56;;;;;;;;;;;;;;;23.60;27.53;98566.91;5089887;28;19912;-36
2023/02/26 11:13:22;;;;;;;;;;;;;;;23.30;27.81;98576.75;5092745;28;20027;-36
2023/02/26 11:15:50;;;;;;;;;;;;;;;22.99;28.03;98570.25;5092761;28;19987;-36
2023/02/26 11:18:17;;;;;;;;;;;;;;;23.29;27.38;98575.97;5092734;28;20272;-36
2023/02/26 11:20:45;;;;;;;;;;;;;;;22.90;27.40;98547.72;5092268;28;19924;-36
2023/02/26 11:23:12;;;;;;;;;;;;;;;23.07;27.64;98560.56;5091892;28;19924;-38
2023/02/26 11:25:38;;;;;;;;;;;;;;;23.39;29.45;98534.16;5092053;28;19955;-36
2023/02/26 11:28:17;;;;;;;;;;;;;;;23.51;27.18;98541.66;5092256;28;19962;-36
2023/02/26 11:30:44;;;;;;;;;;;;;;;22.35;27.58;98521.81;5092411;28;19934;-35
2023/02/26 11:33:36;;;;;;;;;;;;;;;22.42;28.99;98551.19;5092462;28;19912;-36
2023/02/26 11:36:05;;;;;;;;;;;;;;;23.13;29.00;98544.94;5089685;28;19977;-36
2023/02/26 11:38:30;;;;;;;;;;;;;;;24.27;27.68;98540.38;5092153;28;19912;-37
2023/02/26 11:40:57;;;;;;;;;;;;;;;23.71;27.88;98551.09;5092072;28;19923;-36
2023/02/26 11:43:24;;;;;;;;;;;;;;;24.34;27.45;98546.91;5092279;28;20001;-35
2023/02/26 11:45:54;;;;;;;;;;;;;;;25.15;26.04;98541.63;5106266;28;20375;-42
2023/02/26 11:48:28;;;;;;;;;;;;;;;24.58;26.25;98545.59;5112522;28;19916;-41
2023/02/26 11:50:56;;;;;;;;;;;;;;;24.43;26.70;98538.72;5112238;28;19912;-42
2023/02/26 11:53:31;;;;;;;;;;;;;;;23.56;27.91;98553.16;5092207;28;19913;-42
2023/02/26 11:56:16;;;;;;;;;;;;;;;23.30;28.33;98531.41;5092029;28;19918;-40
2023/02/26 11:58:44;;;;;;;;;;;;;;;22.32;29.50;98510.81;5084381;28;20277;-42
2023/02/26 12:01:10;;;;;;;;;;;;;;;21.94;30.12;98514.69;5091181;28;20053;-41
2023/02/26 12:03:39;;;;;;;;;;;;;;;22.29;29.59;98533.88;5091388;28;20451;-42
2023/02/26 12:06:05;;;;;;;;;;;;;;;22.53;29.30;98511.84;5090319;28;20371;-41
2023/02/26 12:08:38;;;;;;;;;;;;;;;22.03;29.89;98509.34;5090418;28;19952;-41
2023/02/26 12:11:15;;;;;;;;;;;;;;;22.68;29.53;98518.78;5090301;28;20042;-41
2023/02/26 12:14:07;;;;;;;;;;;;;;;22.18;30.08;98521.69;5089577;28;19979;-42
2023/02/26 12:16:35;;;;;;;;;;;;;;;22.50;29.51;98512.47;5073281;28;19984;-41
2023/02/26 12:19:19;;;;;;;;;;;;;;;22.55;29.69;98512.34;5090015;28;19912;-41
2023/02/26 12:21:50;;;;;;;;;;;;;;;22.82;29.10;98526.81;5090958;28;20340;-42
2023/02/26 12:24:33;;;;;;;;;;;;;;;22.57;29.43;98517.47;5090722;28;19916;-42
2023/02/26 12:27:13;;;;;;;;;;;;;;;22.62;29.37;98517.34;5090587;28;19962;-41
2023/02/26 12:29:47;;;;;;;;;;;;;;;22.85;28.47;98520.75;5091148;28;19943;-41
2023/02/26 12:32:18;;;;;;;;;;;;;;;22.82;28.31;98524.09;5091156;28;20007;-41
2023/02/26 12:34:44;;;;;;;;;;;;;;;22.60;28.06;98517.63;5091193;28;20396;-41
2023/02/26 12:37:30;;;;;;;;;;;;;;;22.89;27.69;98521.72;5090986;28;20012;-44
2023/02/26 12:40:10;;;;;;;;;;;;;;;22.89;27.58;98513.59;5090762;28;19915;-41
2023/02/26 12:42:48;;;;;;;;;;;;;;;23.05;26.85;98505.03;5090764;28;19916;-42
2023/02/26 12:45:13;;;;;;;;;;;;;;;23.45;26.45;98513.88;5100252;28;20323;-42
2023/02/26 12:47:47;;;;;;;;;;;;;;;23.15;26.32;98486.56;5111228;28;19958;-42
2023/02/26 12:50:15;;;;;;;;;;;;;;;22.25;27.39;98455.13;5111243;28;19986;-42
2023/02/26 12:52:54;;;;;;;;;;;;;;;21.71;27.87;98451.63;5110649;28;19928;-42
2023/02/26 12:55:23;;;;;;;;;;;;;;;21.75;27.79;98462.63;5111206;28;19951;-42